^^
Saratoga-Weather Station Historical Data
Daily Summary for February 9, 2020 Units:  Metric    English   Both
Daily Weekly Monthly Yearly Custom
  High: Low: Average:
Temperature: 2.8 °C 0.5 °C 1.4 °C
Dew Point: 2 °C -0.7 °C 0.4 °C
Humidity: 96% 90% 93%
Wind Speed: 13km/h 0km/h 2.9km/h
Wind Gust: 16.1km/h - -
Wind- - WSW
Pressure: 1011.9 hPa 1006.4 hPa -
Precipitation: 0.0 mm    
Historical Graphs
 
 
Tabular Data for February 9, 2020
Time Temperature Dew Point Pressure Wind Wind Speed Wind Gust Humidity Rainfall Rate (Hourly) solar
00:02 2.5 °C 1.9 °C 1006.4 hPa WNW 4.7 km/h 11.3 km/h 96% 0.0 mm 0 W/m2
00:07 2.5 °C 1.8 °C 1006.4 hPa WNW 4.7 km/h 4.8 km/h 95% 0.0 mm 0 W/m2
00:12 2.6 °C 1.9 °C 1006.4 hPa SW 1.4 km/h 9.7 km/h 95% 0.0 mm 0 W/m2
00:17 2.6 °C 1.9 °C 1006.4 hPa WSW 6.4 km/h 6.4 km/h 95% 0.0 mm 0 W/m2
00:22 2.6 °C 1.9 °C 1006.4 hPa West 4.7 km/h 6.4 km/h 95% 0.0 mm 0 W/m2
00:27 2.6 °C 1.9 °C 1006.4 hPa WNW 1.4 km/h 1.6 km/h 95% 0.0 mm 0 W/m2
00:32 2.6 °C 1.9 °C 1006.4 hPa WNW 4.7 km/h 11.3 km/h 95% 0.0 mm 0 W/m2
00:37 2.6 °C 1.9 °C 1006.4 hPa West 3.2 km/h 4.8 km/h 95% 0.0 mm 0 W/m2
00:42 2.6 °C 1.9 °C 1006.4 hPa West 6.4 km/h 14.5 km/h 95% 0.0 mm 0 W/m2
00:47 2.6 °C 1.9 °C 1006.8 hPa West 9.7 km/h 11.3 km/h 95% 0.0 mm 0 W/m2
00:52 2.6 °C 1.9 °C 1006.8 hPa WNW 7.9 km/h 12.9 km/h 95% 0.0 mm 0 W/m2
00:57 2.6 °C 1.9 °C 1006.8 hPa WSW 11.1 km/h 11.3 km/h 95% 0.0 mm 0 W/m2
01:02 2.6 °C 1.9 °C 1006.8 hPa WSW 4.7 km/h 11.3 km/h 95% 0.0 mm 0 W/m2
01:07 2.6 °C 1.9 °C 1006.8 hPa WNW 4.7 km/h 9.7 km/h 95% 0.0 mm 0 W/m2
01:12 2.7 °C 2 °C 1006.8 hPa WNW 4.7 km/h 9.7 km/h 95% 0.0 mm 0 W/m2
01:17 2.7 °C 1.8 °C 1006.8 hPa West 4.7 km/h 11.3 km/h 94% 0.0 mm 0 W/m2
01:22 2.7 °C 1.8 °C 1007.1 hPa West 4.7 km/h 6.4 km/h 94% 0.0 mm 0 W/m2
01:27 2.7 °C 1.8 °C 1007.1 hPa WSW 6.4 km/h 11.3 km/h 94% 0.0 mm 0 W/m2
01:32 2.7 °C 1.8 °C 1007.1 hPa WNW 3.2 km/h 9.7 km/h 94% 0.0 mm 0 W/m2
01:37 2.7 °C 1.8 °C 1007.1 hPa West 3.2 km/h 6.4 km/h 94% 0.0 mm 0 W/m2
01:42 2.8 °C 1.9 °C 1007.1 hPa WSW 7.9 km/h 12.9 km/h 94% 0.0 mm 0 W/m2
01:47 2.7 °C 1.8 °C 1007.1 hPa West 6.4 km/h 12.9 km/h 94% 0.0 mm 0 W/m2
01:52 2.8 °C 1.9 °C 1007.1 hPa West 9.7 km/h 11.3 km/h 94% 0.0 mm 0 W/m2
01:57 2.8 °C 1.9 °C 1007.1 hPa West 4.7 km/h 11.3 km/h 94% 0.0 mm 0 W/m2
02:02 2.8 °C 1.9 °C 1007.1 hPa WNW 4.7 km/h 9.7 km/h 94% 0.0 mm 0 W/m2
02:07 2.8 °C 1.8 °C 1007.1 hPa WNW 4.7 km/h 9.7 km/h 93% 0.0 mm 0 W/m2
02:12 2.8 °C 1.8 °C 1007.5 hPa West 3.2 km/h 6.4 km/h 93% 0.0 mm 0 W/m2
02:17 2.8 °C 1.8 °C 1007.5 hPa West 9.7 km/h 9.7 km/h 93% 0.0 mm 0 W/m2
02:22 2.8 °C 1.8 °C 1007.5 hPa West 6.4 km/h 6.4 km/h 93% 0.0 mm 0 W/m2
02:27 2.8 °C 1.8 °C 1007.5 hPa WNW 9.7 km/h 9.7 km/h 93% 0.0 mm 0 W/m2
02:32 2.8 °C 1.8 °C 1007.8 hPa WNW 3.2 km/h 8 km/h 93% 0.0 mm 0 W/m2
02:37 2.7 °C 1.7 °C 1007.8 hPa WNW 3.2 km/h 4.8 km/h 93% 0.0 mm 0 W/m2
02:42 2.7 °C 1.7 °C 1007.8 hPa West 4.7 km/h 6.4 km/h 93% 0.0 mm 0 W/m2
02:47 2.7 °C 1.7 °C 1007.8 hPa WNW 4.7 km/h 6.4 km/h 93% 0.0 mm 0 W/m2
02:52 2.6 °C 1.6 °C 1007.8 hPa WSW 7.9 km/h 11.3 km/h 93% 0.0 mm 0 W/m2
02:57 2.5 °C 1.5 °C 1007.8 hPa WSW 6.4 km/h 6.4 km/h 93% 0.0 mm 0 W/m2
03:02 2.4 °C 1.2 °C 1008.1 hPa WNW 3.2 km/h 9.7 km/h 92% 0.0 mm 0 W/m2
03:07 2.4 °C 1.2 °C 1007.8 hPa WNW 3.2 km/h 11.3 km/h 92% 0.0 mm 0 W/m2
03:12 2.4 °C 1.2 °C 1008.1 hPa West 4.7 km/h 9.7 km/h 92% 0.0 mm 0 W/m2
03:17 2.4 °C 1.2 °C 1008.1 hPa NW 3.2 km/h 6.4 km/h 92% 0.0 mm 0 W/m2
03:22 2.4 °C 1.2 °C 1008.1 hPa West 3.2 km/h 4.8 km/h 92% 0.0 mm 0 W/m2
03:27 2.3 °C 1.1 °C 1008.1 hPa WNW 3.2 km/h 6.4 km/h 92% 0.0 mm 0 W/m2
03:32 2.2 °C 1 °C 1008.1 hPa West 4.7 km/h 9.7 km/h 92% 0.0 mm 0 W/m2
03:37 2.1 °C 0.9 °C 1008.1 hPa WNW 3.2 km/h 4.8 km/h 92% 0.0 mm 0 W/m2
03:42 2.1 °C 0.9 °C 1008.1 hPa West 3.2 km/h 9.7 km/h 92% 0.0 mm 0 W/m2
03:47 2.1 °C 1.1 °C 1008.1 hPa West 3.2 km/h 4.8 km/h 93% 0.0 mm 0 W/m2
03:52 2.1 °C 1.1 °C 1008.5 hPa NNW 6.4 km/h 9.7 km/h 93% 0.0 mm 0 W/m2
03:57 2.1 °C 1.1 °C 1008.5 hPa NW 13 km/h 12.9 km/h 93% 0.0 mm 0 W/m2
04:02 2.1 °C 1.1 °C 1008.5 hPa WNW 4.7 km/h 11.3 km/h 93% 0.0 mm 0 W/m2
04:07 2.1 °C 1.1 °C 1008.5 hPa WNW 12.9 km/h 12.9 km/h 93% 0.0 mm 0 W/m2
04:12 2.1 °C 1.1 °C 1008.5 hPa WNW 6.4 km/h 12.9 km/h 93% 0.0 mm 0 W/m2
04:17 2.1 °C 1.1 °C 1008.5 hPa West 6.4 km/h 9.7 km/h 93% 0.0 mm 0 W/m2
04:22 2.1 °C 1.1 °C 1008.5 hPa WNW 4.7 km/h 12.9 km/h 93% 0.0 mm 0 W/m2
04:27 2.1 °C 1.1 °C 1008.5 hPa WSW 11.1 km/h 11.3 km/h 93% 0.0 mm 0 W/m2
04:32 2.1 °C 1.1 °C 1008.5 hPa West 9.7 km/h 12.9 km/h 93% 0.0 mm 0 W/m2
04:37 2 °C 1 °C 1008.5 hPa WSW 9.7 km/h 11.3 km/h 93% 0.0 mm 0 W/m2
04:42 2 °C 1 °C 1008.5 hPa West 3.2 km/h 9.7 km/h 93% 0.0 mm 0 W/m2
04:47 2 °C 1 °C 1008.5 hPa West 3.2 km/h 8 km/h 93% 0.0 mm 0 W/m2
04:52 1.9 °C 0.9 °C 1008.5 hPa West 4.7 km/h 12.9 km/h 93% 0.0 mm 0 W/m2
04:57 1.9 °C 0.7 °C 1008.5 hPa West 6.4 km/h 11.3 km/h 92% 0.0 mm 0 W/m2
05:02 1.9 °C 0.7 °C 1008.8 hPa West 4.7 km/h 9.7 km/h 92% 0.0 mm 0 W/m2
05:07 1.9 °C 0.7 °C 1008.8 hPa WNW 3.2 km/h 6.4 km/h 92% 0.0 mm 0 W/m2
05:12 1.9 °C 0.9 °C 1008.8 hPa WSW 4.7 km/h 6.4 km/h 93% 0.0 mm 0 W/m2
05:17 1.9 °C 0.9 °C 1008.8 hPa West 4.7 km/h 6.4 km/h 93% 0.0 mm 0 W/m2
05:22 1.9 °C 0.9 °C 1008.8 hPa West 3.2 km/h 6.4 km/h 93% 0.0 mm 0 W/m2
05:27 1.8 °C 0.6 °C 1008.8 hPa WNW 3.2 km/h 14.5 km/h 92% 0.0 mm 0 W/m2
05:32 1.8 °C 0.6 °C 1008.8 hPa West 4.7 km/h 11.3 km/h 92% 0.0 mm 0 W/m2
05:37 1.9 °C 0.7 °C 1008.8 hPa WNW 6.4 km/h 14.5 km/h 92% 0.0 mm 0 W/m2
05:42 1.8 °C 0.6 °C 1008.8 hPa WSW 4.7 km/h 11.3 km/h 92% 0.0 mm 0 W/m2
05:47 1.8 °C 0.6 °C 1009.1 hPa West 4.7 km/h 11.3 km/h 92% 0.0 mm 0 W/m2
05:53 1.8 °C 0.6 °C 1009.1 hPa WNW 4.7 km/h 12.9 km/h 92% 0.0 mm 0 W/m2
05:58 1.8 °C 0.6 °C 1009.1 hPa West 4.7 km/h 6.4 km/h 92% 0.0 mm 0 W/m2
06:03 1.8 °C 0.6 °C 1009.1 hPa West 4.7 km/h 11.3 km/h 92% 0.0 mm 0 W/m2
06:08 1.8 °C 0.6 °C 1009.1 hPa West 1.4 km/h 9.7 km/h 92% 0.0 mm 0 W/m2
06:13 1.8 °C 0.6 °C 1009.1 hPa West 13 km/h 12.9 km/h 92% 0.0 mm 0 W/m2
06:18 1.8 °C 0.6 °C 1009.1 hPa NW 3.2 km/h 8 km/h 92% 0.0 mm 0 W/m2
06:23 1.8 °C 0.6 °C 1009.1 hPa West 3.2 km/h 4.8 km/h 92% 0.0 mm 0 W/m2
06:28 1.8 °C 0.6 °C 1009.5 hPa WSW 4.7 km/h 6.4 km/h 92% 0.0 mm 0 W/m2
06:33 1.7 °C 0.5 °C 1009.5 hPa WSW 3.2 km/h 9.7 km/h 92% 0.0 mm 0 W/m2
06:38 1.7 °C 0.5 °C 1009.5 hPa WSW 4.7 km/h 9.7 km/h 92% 0.0 mm 0 W/m2
06:43 1.7 °C 0.5 °C 1009.8 hPa West 4.7 km/h 6.4 km/h 92% 0.0 mm 0 W/m2
06:48 1.7 °C 0.5 °C 1009.8 hPa WSW 6.4 km/h 9.7 km/h 92% 0.0 mm 0 W/m2
06:53 1.7 °C 0.5 °C 1009.8 hPa West 4.7 km/h 4.8 km/h 92% 0.0 mm 0 W/m2
06:58 1.6 °C 0.4 °C 1009.8 hPa West 3.2 km/h 6.4 km/h 92% 0.0 mm 0 W/m2
07:03 1.6 °C 0.4 °C 1009.8 hPa WNW 6.4 km/h 8 km/h 92% 0.0 mm 0 W/m2
07:08 1.5 °C 0.3 °C 1009.8 hPa WSW 9.7 km/h 9.7 km/h 92% 0.0 mm 0 W/m2
07:13 1.5 °C 0.3 °C 1009.8 hPa West 4.7 km/h 9.7 km/h 92% 0.0 mm 0 W/m2
07:18 1.4 °C 0.2 °C 1010.2 hPa West 3.2 km/h 11.3 km/h 92% 0.0 mm 0 W/m2
07:23 1.3 °C 0.1 °C 1009.8 hPa WNW 3.2 km/h 11.3 km/h 92% 0.0 mm 0 W/m2
07:28 1.2 °C 0 °C 1010.2 hPa West 9.7 km/h 16.1 km/h 92% 0.0 mm 0 W/m2
07:33 1.2 °C 0 °C 1010.2 hPa West 3.2 km/h 11.3 km/h 92% 0.0 mm 0 W/m2
07:38 1.1 °C -0.1 °C 1010.2 hPa WNW 4.7 km/h 12.9 km/h 92% 0.0 mm 0 W/m2
07:43 1.1 °C -0.1 °C 1009.8 hPa WNW 7.9 km/h 9.7 km/h 92% 0.0 mm 0 W/m2
07:48 1.1 °C -0.1 °C 1009.8 hPa WSW 3.2 km/h 12.9 km/h 92% 0.0 mm 0 W/m2
07:53 1.1 °C -0.1 °C 1009.8 hPa WSW 3.2 km/h 6.4 km/h 92% 0.0 mm 0 W/m2
07:58 1.1 °C -0.1 °C 1009.8 hPa West 9.7 km/h 14.5 km/h 92% 0.0 mm 0 W/m2
08:03 1.1 °C -0.2 °C 1010.2 hPa WNW 3.2 km/h 6.4 km/h 91% 0.0 mm 0 W/m2
08:08 1.1 °C -0.2 °C 1010.2 hPa WNW 3.2 km/h 14.5 km/h 91% 0.0 mm 0 W/m2
08:13 1.1 °C -0.2 °C 1010.2 hPa NW 4.7 km/h 11.3 km/h 91% 0.0 mm 0 W/m2
08:18 1.1 °C -0.2 °C 1010.2 hPa WNW 1.4 km/h 3.2 km/h 91% 0.0 mm 0 W/m2
08:23 1.1 °C -0.2 °C 1010.2 hPa Calm   11.3 km/h 91% 0.0 mm 0 W/m2
08:28 1.1 °C -0.2 °C 1010.2 hPa WSW 1.4 km/h 4.8 km/h 91% 0.0 mm 0 W/m2
08:33 1.1 °C -0.2 °C 1010.2 hPa WNW 4.7 km/h 6.4 km/h 91% 0.0 mm 5 W/m2
08:38 1 °C -0.3 °C 1010.2 hPa West 3.2 km/h 6.4 km/h 91% 0.0 mm 7 W/m2
08:43 1 °C -0.3 °C 1009.8 hPa West 1.4 km/h 4.8 km/h 91% 0.0 mm 9 W/m2
08:48 0.9 °C -0.4 °C 1010.2 hPa Calm   3.2 km/h 91% 0.0 mm 11 W/m2
08:53 0.9 °C -0.4 °C 1010.2 hPa West 1.4 km/h 3.2 km/h 91% 0.0 mm 16 W/m2
08:58 0.9 °C -0.4 °C 1010.2 hPa West 1.4 km/h 6.4 km/h 91% 0.0 mm 19 W/m2
09:03 0.9 °C -0.4 °C 1010.2 hPa WNW 4.7 km/h 9.7 km/h 91% 0.0 mm 23 W/m2
09:08 0.9 °C -0.4 °C 1010.2 hPa West 3.2 km/h 4.8 km/h 91% 0.0 mm 21 W/m2
09:13 0.9 °C -0.4 °C 1010.2 hPa WNW 6.4 km/h 9.7 km/h 91% 0.0 mm 19 W/m2
09:18 1 °C -0.3 °C 1010.2 hPa West 1.4 km/h 4.8 km/h 91% 0.0 mm 18 W/m2
09:23 1 °C -0.3 °C 1010.2 hPa WNW 3.2 km/h 6.4 km/h 91% 0.0 mm 25 W/m2
09:28 1.1 °C -0.2 °C 1010.2 hPa Calm   4.8 km/h 91% 0.0 mm 25 W/m2
09:33 1.1 °C -0.2 °C 1010.2 hPa WNW 3.2 km/h 8 km/h 91% 0.0 mm 32 W/m2
09:38 1.1 °C -0.2 °C 1010.2 hPa WNW 3.2 km/h 4.8 km/h 91% 0.0 mm 39 W/m2
09:43 1.1 °C -0.2 °C 1010.2 hPa WNW 4.7 km/h 8 km/h 91% 0.0 mm 32 W/m2
09:48 1.1 °C -0.2 °C 1010.2 hPa WNW 3.2 km/h 9.7 km/h 91% 0.0 mm 32 W/m2
09:53 1.1 °C -0.2 °C 1010.2 hPa WSW 4.7 km/h 11.3 km/h 91% 0.0 mm 44 W/m2
09:58 1.1 °C -0.2 °C 1010.2 hPa WNW 6.4 km/h 6.4 km/h 91% 0.0 mm 49 W/m2
10:03 1.1 °C -0.2 °C 1010.5 hPa WNW 6.4 km/h 11.3 km/h 91% 0.0 mm 40 W/m2
10:08 0.9 °C -0.4 °C 1010.8 hPa West 1.4 km/h 9.7 km/h 91% 0.0 mm 35 W/m2
10:13 0.9 °C -0.6 °C 1010.8 hPa WSW 1.4 km/h 6.4 km/h 90% 0.0 mm 44 W/m2
10:18 0.9 °C -0.4 °C 1010.8 hPa West 4.7 km/h 11.3 km/h 91% 0.0 mm 42 W/m2
10:23 0.9 °C -0.6 °C 1010.8 hPa WSW 3.2 km/h 6.4 km/h 90% 0.0 mm 53 W/m2
10:28 0.9 °C -0.4 °C 1010.8 hPa West 6.4 km/h 6.4 km/h 91% 0.0 mm 56 W/m2
10:33 0.9 °C -0.6 °C 1010.8 hPa West 4.7 km/h 6.4 km/h 90% 0.0 mm 49 W/m2
10:38 0.9 °C -0.6 °C 1011.2 hPa NW 3.2 km/h 4.8 km/h 90% 0.0 mm 53 W/m2
10:43 0.9 °C -0.4 °C 1011.5 hPa Calm   3.2 km/h 91% 0.0 mm 42 W/m2
10:48 0.9 °C -0.6 °C 1011.5 hPa NW 1.4 km/h 3.2 km/h 90% 0.0 mm 44 W/m2
10:53 0.9 °C -0.6 °C 1011.5 hPa Calm   3.2 km/h 90% 0.0 mm 33 W/m2
10:58 0.9 °C -0.6 °C 1011.9 hPa Calm   1.6 km/h 90% 0.0 mm 33 W/m2
11:03 0.9 °C -0.6 °C 1011.9 hPa NE 1.4 km/h 4.8 km/h 90% 0.0 mm 28 W/m2
11:08 0.9 °C -0.6 °C 1011.5 hPa Calm     90% 0.0 mm 33 W/m2
11:13 0.9 °C -0.6 °C 1011.5 hPa North 3.2 km/h 4.8 km/h 90% 0.0 mm 47 W/m2
11:18 0.9 °C -0.6 °C 1011.2 hPa West 6.4 km/h 6.4 km/h 90% 0.0 mm 70 W/m2
11:23 0.9 °C -0.4 °C 1010.8 hPa West 1.4 km/h 8 km/h 91% 0.0 mm 79 W/m2
11:28 1 °C -0.5 °C 1010.8 hPa NW 3.2 km/h 4.8 km/h 90% 0.0 mm 90 W/m2
11:33 1 °C -0.5 °C 1010.5 hPa NW 3.2 km/h 8 km/h 90% 0.0 mm 97 W/m2
11:38 1.1 °C -0.4 °C 1010.8 hPa WNW 3.2 km/h 6.4 km/h 90% 0.0 mm 88 W/m2
11:44 1.1 °C -0.2 °C 1010.5 hPa West 3.2 km/h 8 km/h 91% 0.0 mm 107 W/m2
11:49 1 °C -0.5 °C 1010.5 hPa WNW 3.2 km/h 3.2 km/h 90% 0.0 mm 113 W/m2
11:54 0.9 °C -0.6 °C 1010.5 hPa WSW 6.4 km/h 9.7 km/h 90% 0.0 mm 114 W/m2
11:59 0.9 °C -0.6 °C 1010.5 hPa WNW 1.4 km/h 8 km/h 90% 0.0 mm 104 W/m2
12:04 1 °C -0.5 °C 1010.5 hPa WNW 3.2 km/h 4.8 km/h 90% 0.0 mm 88 W/m2
12:09 0.9 °C -0.4 °C 1010.5 hPa West 4.7 km/h 11.3 km/h 91% 0.0 mm 105 W/m2
12:14 0.9 °C -0.4 °C 1010.5 hPa WNW 9.7 km/h 9.7 km/h 91% 0.0 mm 125 W/m2
12:19 0.8 °C -0.7 °C 1010.5 hPa NNW 6.4 km/h 6.4 km/h 90% 0.0 mm 114 W/m2
12:24 0.7 °C -0.6 °C 1010.5 hPa NNW 4.7 km/h 4.8 km/h 91% 0.0 mm 102 W/m2
12:29 0.7 °C -0.6 °C 1010.5 hPa WNW 4.7 km/h 11.3 km/h 91% 0.0 mm 91 W/m2
12:34 0.7 °C -0.6 °C 1010.5 hPa NW 6.4 km/h 11.3 km/h 91% 0.0 mm 81 W/m2
12:39 0.7 °C -0.6 °C 1010.5 hPa WSW 4.7 km/h 4.8 km/h 91% 0.0 mm 81 W/m2
12:44 0.7 °C -0.6 °C 1010.5 hPa WNW 3.2 km/h 4.8 km/h 91% 0.0 mm 69 W/m2
12:49 0.7 °C -0.6 °C 1010.5 hPa Calm   3.2 km/h 91% 0.0 mm 70 W/m2
12:54 0.8 °C -0.4 °C 1010.5 hPa Calm   3.2 km/h 92% 0.0 mm 72 W/m2
12:59 0.8 °C -0.5 °C 1010.5 hPa West 3.2 km/h 6.4 km/h 91% 0.0 mm 72 W/m2
13:04 0.7 °C -0.6 °C 1010.5 hPa West 1.4 km/h 9.7 km/h 91% 0.0 mm 63 W/m2
13:09 0.7 °C -0.5 °C 1010.8 hPa SSW 1.4 km/h 3.2 km/h 92% 0.0 mm 53 W/m2
13:14 0.7 °C -0.5 °C 1010.5 hPa NW 3.2 km/h 4.8 km/h 92% 0.0 mm 54 W/m2
13:19 0.7 °C -0.5 °C 1010.5 hPa SW 1.4 km/h 4.8 km/h 92% 0.0 mm 58 W/m2
13:24 0.7 °C -0.5 °C 1010.5 hPa Calm   4.8 km/h 92% 0.0 mm 56 W/m2
13:29 0.7 °C -0.5 °C 1010.5 hPa West 3.2 km/h 4.8 km/h 92% 0.0 mm 49 W/m2
13:34 0.7 °C -0.5 °C 1010.5 hPa WSW 1.4 km/h 6.4 km/h 92% 0.0 mm 51 W/m2
13:39 0.7 °C -0.5 °C 1010.5 hPa WSW 3.2 km/h 4.8 km/h 92% 0.0 mm 62 W/m2
13:44 0.7 °C -0.5 °C 1010.5 hPa WNW 1.4 km/h 6.4 km/h 92% 0.0 mm 54 W/m2
13:49 0.6 °C -0.5 °C 1010.5 hPa West 9.7 km/h 12.9 km/h 92% 0.0 mm 47 W/m2
13:54 0.5 °C -0.6 °C 1010.5 hPa WNW 4.7 km/h 4.8 km/h 92% 0.0 mm 42 W/m2
13:59 0.5 °C -0.6 °C 1010.5 hPa NW 4.7 km/h 12.9 km/h 92% 0.0 mm 37 W/m2
14:04 0.6 °C -0.4 °C 1010.5 hPa West 4.7 km/h 4.8 km/h 93% 0.0 mm 35 W/m2
14:09 0.6 °C -0.4 °C 1010.5 hPa West 3.2 km/h 4.8 km/h 93% 0.0 mm 33 W/m2
14:14 0.6 °C -0.4 °C 1010.5 hPa Calm   3.2 km/h 93% 0.0 mm 35 W/m2
14:19 0.6 °C -0.4 °C 1010.5 hPa WNW 3.2 km/h 4.8 km/h 93% 0.0 mm 35 W/m2
14:24 0.6 °C -0.4 °C 1010.5 hPa Calm   3.2 km/h 93% 0.0 mm 32 W/m2
14:29 0.6 °C -0.4 °C 1010.5 hPa Calm   6.4 km/h 93% 0.0 mm 30 W/m2
14:34 0.6 °C -0.3 °C 1010.5 hPa WSW 1.4 km/h 4.8 km/h 94% 0.0 mm 32 W/m2
14:39 0.6 °C -0.3 °C 1010.5 hPa Calm   6.4 km/h 94% 0.0 mm 30 W/m2
14:44 0.6 °C -0.4 °C 1010.5 hPa Calm   3.2 km/h 93% 0.0 mm 33 W/m2
14:49 0.6 °C -0.3 °C 1010.5 hPa WNW 1.4 km/h 3.2 km/h 94% 0.0 mm 32 W/m2
14:54 0.7 °C -0.2 °C 1010.5 hPa Calm   1.6 km/h 94% 0.0 mm 28 W/m2
14:59 0.7 °C -0.2 °C 1010.5 hPa Calm   3.2 km/h 94% 0.0 mm 32 W/m2
15:04 0.7 °C -0.2 °C 1010.5 hPa West 1.4 km/h 1.6 km/h 94% 0.0 mm 32 W/m2
15:09 0.7 °C -0.2 °C 1010.5 hPa Calm   1.6 km/h 94% 0.0 mm 28 W/m2
15:14 0.7 °C -0.2 °C 1010.5 hPa NE 3.2 km/h 3.2 km/h 94% 0.0 mm 26 W/m2
15:19 0.8 °C -0.1 °C 1010.5 hPa Calm   1.6 km/h 94% 0.0 mm 21 W/m2
15:24 0.8 °C -0.1 °C 1010.5 hPa Calm   3.2 km/h 94% 0.0 mm 19 W/m2
15:29 0.8 °C -0.1 °C 1010.5 hPa Calm   1.6 km/h 94% 0.0 mm 18 W/m2
15:34 0.8 °C -0.1 °C 1010.5 hPa Calm   3.2 km/h 94% 0.0 mm 18 W/m2
15:39 0.9 °C 0 °C 1010.5 hPa Calm     94% 0.0 mm 16 W/m2
15:44 0.9 °C 0 °C 1010.5 hPa East 1.4 km/h 1.6 km/h 94% 0.0 mm 14 W/m2
15:49 0.9 °C 0 °C 1010.8 hPa Calm     94% 0.0 mm 12 W/m2
15:54 0.9 °C 0 °C 1010.8 hPa Calm   1.6 km/h 94% 0.0 mm 11 W/m2
15:59 0.9 °C 0 °C 1010.5 hPa Calm   1.6 km/h 94% 0.0 mm 9 W/m2
16:04 1 °C 0.1 °C 1010.5 hPa Calm   3.2 km/h 94% 0.0 mm 7 W/m2
16:09 0.9 °C 0 °C 1010.5 hPa ESE 3.2 km/h 4.8 km/h 94% 0.0 mm 5 W/m2
16:14 0.9 °C 0 °C 1010.8 hPa ESE 1.4 km/h 4.8 km/h 94% 0.0 mm 5 W/m2
16:19 0.9 °C 0 °C 1010.8 hPa Calm   3.2 km/h 94% 0.0 mm 0 W/m2
16:25 0.9 °C 0 °C 1010.8 hPa Calm   4.8 km/h 94% 0.0 mm 0 W/m2
16:30 0.9 °C 0 °C 1010.8 hPa ESE 3.2 km/h 3.2 km/h 94% 0.0 mm 0 W/m2
16:35 0.9 °C 0 °C 1010.8 hPa Calm     94% 0.0 mm 0 W/m2
16:40 0.9 °C 0 °C 1010.8 hPa Calm     94% 0.0 mm 0 W/m2
16:45 0.9 °C 0 °C 1010.8 hPa Calm     94% 0.0 mm 0 W/m2
16:50 1 °C 0.1 °C 1010.8 hPa Calm     94% 0.0 mm 0 W/m2
16:55 1 °C 0.1 °C 1010.5 hPa ENE 3.2 km/h 3.2 km/h 94% 0.0 mm 0 W/m2
17:00 1 °C 0.1 °C 1010.5 hPa Calm     94% 0.0 mm 0 W/m2
17:05 1 °C 0.1 °C 1010.5 hPa Calm     94% 0.0 mm 0 W/m2
17:10 1 °C 0.1 °C 1010.5 hPa Calm     94% 0.0 mm 0 W/m2
17:15 1 °C 0.1 °C 1010.5 hPa Calm     94% 0.0 mm 0 W/m2
17:20 1.1 °C 0.2 °C 1010.5 hPa Calm     94% 0.0 mm 0 W/m2
17:25 1.1 °C 0.2 °C 1010.5 hPa WSW 1.4 km/h 1.6 km/h 94% 0.0 mm 0 W/m2
17:30 1.1 °C 0.2 °C 1010.5 hPa Calm     94% 0.0 mm 0 W/m2
17:35 1.1 °C 0.2 °C 1010.8 hPa Calm     94% 0.0 mm 0 W/m2
17:40 1.1 °C 0.2 °C 1010.8 hPa Calm     94% 0.0 mm 0 W/m2
17:45 1.1 °C 0.2 °C 1010.8 hPa Calm     94% 0.0 mm 0 W/m2
17:50 1.1 °C 0.2 °C 1010.8 hPa SE 1.4 km/h 4.8 km/h 94% 0.0 mm 0 W/m2
17:55 1.1 °C 0.2 °C 1010.8 hPa Calm   1.6 km/h 94% 0.0 mm 0 W/m2
18:00 1.1 °C 0.2 °C 1010.8 hPa Calm     94% 0.0 mm 0 W/m2
18:05 1.1 °C 0.2 °C 1010.8 hPa Calm     94% 0.0 mm 0 W/m2
18:10 1.1 °C 0.2 °C 1010.8 hPa Calm   1.6 km/h 94% 0.0 mm 0 W/m2
18:15 1.2 °C 0.3 °C 1010.8 hPa SSE 1.4 km/h 3.2 km/h 94% 0.0 mm 0 W/m2
18:20 1.2 °C 0.5 °C 1010.8 hPa Calm   3.2 km/h 95% 0.0 mm 0 W/m2
18:25 1.2 °C 0.3 °C 1010.8 hPa Calm     94% 0.0 mm 0 W/m2
18:30 1.2 °C 0.3 °C 1010.8 hPa ESE 3.2 km/h 3.2 km/h 94% 0.0 mm 0 W/m2
18:35 1.2 °C 0.5 °C 1010.8 hPa ESE 1.4 km/h 1.6 km/h 95% 0.0 mm 0 W/m2
18:40 1.2 °C 0.5 °C 1010.8 hPa Calm   1.6 km/h 95% 0.0 mm 0 W/m2
18:45 1.2 °C 0.5 °C 1010.8 hPa ESE 3.2 km/h 3.2 km/h 95% 0.0 mm 0 W/m2
18:50 1.2 °C 0.5 °C 1010.8 hPa ESE 1.4 km/h 3.2 km/h 95% 0.0 mm 0 W/m2
18:55 1.2 °C 0.5 °C 1010.8 hPa Calm   3.2 km/h 95% 0.0 mm 0 W/m2
19:00 1.2 °C 0.5 °C 1010.8 hPa ESE 1.4 km/h 6.4 km/h 95% 0.0 mm 0 W/m2
19:05 1.3 °C 0.6 °C 1010.8 hPa Calm   1.6 km/h 95% 0.0 mm 0 W/m2
19:10 1.3 °C 0.6 °C 1010.8 hPa ESE 1.4 km/h 1.6 km/h 95% 0.0 mm 0 W/m2
19:15 1.3 °C 0.6 °C 1010.8 hPa Calm   4.8 km/h 95% 0.0 mm 0 W/m2
19:20 1.3 °C 0.6 °C 1010.8 hPa East 3.2 km/h 3.2 km/h 95% 0.0 mm 0 W/m2
19:25 1.3 °C 0.6 °C 1010.8 hPa East 1.4 km/h 4.8 km/h 95% 0.0 mm 0 W/m2
19:30 1.3 °C 0.6 °C 1010.8 hPa ESE 1.4 km/h 4.8 km/h 95% 0.0 mm 0 W/m2
19:35 1.3 °C 0.6 °C 1010.8 hPa ESE 1.4 km/h 4.8 km/h 95% 0.0 mm 0 W/m2
19:40 1.3 °C 0.6 °C 1010.8 hPa Calm   1.6 km/h 95% 0.0 mm 0 W/m2
19:45 1.3 °C 0.6 °C 1010.5 hPa Calm   4.8 km/h 95% 0.0 mm 0 W/m2
19:50 1.3 °C 0.6 °C 1010.5 hPa Calm     95% 0.0 mm 0 W/m2
19:55 1.4 °C 0.7 °C 1010.5 hPa ESE 1.4 km/h 1.6 km/h 95% 0.0 mm 0 W/m2
20:05 1.4 °C 0.7 °C 1010.5 hPa Calm   1.6 km/h 95% 0.0 mm 0 W/m2
20:10 1.4 °C 0.7 °C 1010.5 hPa Calm     95% 0.0 mm 0 W/m2
20:15 1.4 °C 0.7 °C 1010.5 hPa Calm     95% 0.0 mm 0 W/m2
20:20 1.4 °C 0.7 °C 1010.5 hPa ESE 3.2 km/h 3.2 km/h 95% 0.0 mm 0 W/m2
20:25 1.4 °C 0.7 °C 1010.2 hPa Calm   3.2 km/h 95% 0.0 mm 0 W/m2
20:30 1.4 °C 0.7 °C 1010.2 hPa Calm   1.6 km/h 95% 0.0 mm 0 W/m2
20:35 1.4 °C 0.7 °C 1010.2 hPa Calm     95% 0.0 mm 0 W/m2
20:40 1.4 °C 0.7 °C 1010.5 hPa Calm     95% 0.0 mm 0 W/m2
20:45 1.4 °C 0.7 °C 1010.5 hPa ENE 1.4 km/h 3.2 km/h 95% 0.0 mm 0 W/m2
20:50 1.4 °C 0.7 °C 1010.5 hPa ENE 1.4 km/h 1.6 km/h 95% 0.0 mm 0 W/m2
20:55 1.4 °C 0.7 °C 1010.5 hPa Calm   3.2 km/h 95% 0.0 mm 0 W/m2
21:00 1.4 °C 0.7 °C 1010.5 hPa Calm     95% 0.0 mm 0 W/m2
21:05 1.4 °C 0.7 °C 1010.5 hPa Calm     95% 0.0 mm 0 W/m2
21:10 1.4 °C 0.7 °C 1010.5 hPa Calm     95% 0.0 mm 0 W/m2
21:15 1.4 °C 0.5 °C 1010.2 hPa Calm     94% 0.0 mm 0 W/m2
21:20 1.4 °C 0.5 °C 1010.2 hPa Calm     94% 0.0 mm 0 W/m2
21:25 1.4 °C 0.5 °C 1010.2 hPa Calm     94% 0.0 mm 0 W/m2
21:30 1.4 °C 0.7 °C 1010.2 hPa Calm     95% 0.0 mm 0 W/m2
21:35 1.4 °C 0.7 °C 1010.2 hPa Calm     95% 0.0 mm 0 W/m2
21:40 1.4 °C 0.7 °C 1010.5 hPa Calm     95% 0.0 mm 0 W/m2
21:45 1.4 °C 0.7 °C 1010.2 hPa Calm     95% 0.0 mm 0 W/m2
21:50 1.4 °C 0.7 °C 1010.5 hPa Calm     95% 0.0 mm 0 W/m2
21:55 1.4 °C 0.7 °C 1010.2 hPa Calm     95% 0.0 mm 0 W/m2
22:00 1.4 °C 0.7 °C 1010.5 hPa Calm     95% 0.0 mm 0 W/m2
22:05 1.4 °C 0.7 °C 1010.2 hPa Calm     95% 0.0 mm 0 W/m2
22:10 1.4 °C 0.7 °C 1010.2 hPa Calm     95% 0.0 mm 0 W/m2
22:15 1.4 °C 0.7 °C 1010.2 hPa Calm     95% 0.0 mm 0 W/m2
22:20 1.4 °C 0.7 °C 1010.2 hPa Calm   1.6 km/h 95% 0.0 mm 0 W/m2
22:25 1.4 °C 0.7 °C 1010.2 hPa East 3.2 km/h 3.2 km/h 95% 0.0 mm 0 W/m2
22:30 1.5 °C 0.8 °C 1010.2 hPa ESE 1.4 km/h 3.2 km/h 95% 0.0 mm 0 W/m2
22:35 1.5 °C 0.8 °C 1010.2 hPa SE 3.2 km/h 3.2 km/h 95% 0.0 mm 0 W/m2
22:40 1.5 °C 0.8 °C 1010.2 hPa Calm   1.6 km/h 95% 0.0 mm 0 W/m2
22:45 1.5 °C 0.8 °C 1010.2 hPa Calm     95% 0.0 mm 0 W/m2
22:50 1.5 °C 0.8 °C 1010.2 hPa Calm   1.6 km/h 95% 0.0 mm 0 W/m2
22:55 1.5 °C 0.8 °C 1010.2 hPa Calm   1.6 km/h 95% 0.0 mm 0 W/m2
23:01 1.5 °C 0.8 °C 1010.2 hPa Calm     95% 0.0 mm 0 W/m2
23:06 1.5 °C 0.8 °C 1010.2 hPa ESE 1.4 km/h 3.2 km/h 95% 0.0 mm 0 W/m2
23:11 1.5 °C 0.8 °C 1010.2 hPa Calm   3.2 km/h 95% 0.0 mm 0 W/m2
23:16 1.5 °C 0.8 °C 1009.8 hPa Calm   1.6 km/h 95% 0.0 mm 0 W/m2
23:21 1.5 °C 0.8 °C 1009.8 hPa Calm   3.2 km/h 95% 0.0 mm 0 W/m2
23:26 1.6 °C 0.9 °C 1009.8 hPa Calm   1.6 km/h 95% 0.0 mm 0 W/m2
23:31 1.6 °C 0.9 °C 1009.8 hPa Calm     95% 0.0 mm 0 W/m2
23:36 1.6 °C 0.9 °C 1009.8 hPa Calm   3.2 km/h 95% 0.0 mm 0 W/m2
23:41 1.6 °C 0.9 °C 1009.8 hPa Calm   3.2 km/h 95% 0.0 mm 0 W/m2
23:46 1.6 °C 0.9 °C 1009.5 hPa Calm     95% 0.0 mm 0 W/m2
23:51 1.6 °C 0.9 °C 1009.5 hPa Calm   1.6 km/h 95% 0.0 mm 0 W/m2
23:56 1.6 °C 0.9 °C 1009.5 hPa East 1.4 km/h 1.6 km/h 95% 0.0 mm 0 W/m2
Juneau County Weather
Compliments of Weather Underground - 4 mb